aviador You're here:

LZSL Decoded Metar

SLIAC in SLOVAKIA
Report Time2018-06-23 12:00:00
UTC Time2018-06-23 12:12:04
Flight Rules vfr VFR
Wind310° at 16 Gusting to 27 kt
W.Decomp.*RWY 36: 9.6 kt HW 12.8 kt LCW
W.Rank310° ranks 21
Current wind is above 310° avg. (6.3)
Visibility9999 m
Phenomena:Light Shower Rain
Clouds:Scattered CB 030 Hf
Scattered 043 Hf
Expected CloudBase > 2,800 ft AGL from Temp-Dew spread
CeilingNone
Temp13°C (ISA 0)
Dew Point06°C (63% RH)
AAT6.3°C
QNH1018 hPa
Density Alt994 ft
Elevation1,027 ft
Report Wrong Elevation
Raw Report
LZSL 231200Z 31016G27KT 9999 -SHRA SCT030CB SCT043 13/06 Q1018=

Extra information for LZSL:More info

Metar Taf Metar & Taf Last 4 Metars F.Rules Stats Wind Profile Meteogram Temp Stats Airport Information Weather charts Add Link Nearby VenuesMetar ALERT Operation Metar Decoded Social comments